createdAt,value
2018-01-20T00:00:50.695Z,21.35
2018-01-20T00:01:51.810Z,21.4
2018-01-20T00:02:50.708Z,21.41
2018-01-20T00:03:50.799Z,21.36
2018-01-20T00:04:50.726Z,21.36
2018-01-20T00:05:50.830Z,21.33
2018-01-20T00:06:50.667Z,21.4
2018-01-20T00:07:50.725Z,21.35
2018-01-20T00:08:50.798Z,21.37
2018-01-20T00:09:50.744Z,21.34
2018-01-20T00:10:50.661Z,21.33
2018-01-20T00:11:50.678Z,21.34
2018-01-20T00:12:50.709Z,21.35
2018-01-20T00:13:50.762Z,21.35
2018-01-20T00:14:50.708Z,21.34
2018-01-20T00:15:50.809Z,21.36
2018-01-20T00:16:50.731Z,21.35
2018-01-20T00:17:50.686Z,21.35
2018-01-20T00:18:50.823Z,21.32
2018-01-20T00:19:50.862Z,21.34
2018-01-20T00:20:50.856Z,21.34
2018-01-20T00:21:50.747Z,21.35
2018-01-20T00:22:50.714Z,21.33
2018-01-20T00:23:50.815Z,21.35
2018-01-20T00:24:50.759Z,21.35
2018-01-20T00:25:50.867Z,21.34
2018-01-20T00:26:50.710Z,21.31
2018-01-20T00:27:50.795Z,21.33
2018-01-20T00:28:50.810Z,21.34
2018-01-20T00:29:50.726Z,21.29
2018-01-20T00:30:50.706Z,21.31
2018-01-20T00:31:50.719Z,21.33
2018-01-20T00:32:50.742Z,21.31
2018-01-20T00:33:50.815Z,21.26
2018-01-20T00:34:50.866Z,21.32
2018-01-20T00:35:50.770Z,21.32
2018-01-20T00:36:50.800Z,21.35
2018-01-20T00:37:50.769Z,21.36
2018-01-20T00:38:50.839Z,21.32
2018-01-20T00:39:50.707Z,21.33
2018-01-20T00:40:50.765Z,21.32
2018-01-20T00:41:50.735Z,21.36
2018-01-20T00:42:50.747Z,21.31
2018-01-20T00:43:50.835Z,21.31
2018-01-20T00:44:50.757Z,21.31
2018-01-20T00:45:50.849Z,21.28
2018-01-20T00:46:50.740Z,21.3
2018-01-20T00:47:50.721Z,21.32
2018-01-20T00:48:51.006Z,21.33
2018-01-20T00:49:53.449Z,21.3
2018-01-20T00:50:50.736Z,21.28
2018-01-20T00:51:50.775Z,21.3
2018-01-20T00:52:53.470Z,21.24
2018-01-20T00:53:50.835Z,21.26
2018-01-20T00:54:50.889Z,21.3
2018-01-20T00:55:50.742Z,21.32
2018-01-20T00:56:50.746Z,21.25
2018-01-20T00:57:50.697Z,21.28
2018-01-20T00:58:50.771Z,21.23
2018-01-20T00:59:50.711Z,21.21
2018-01-20T01:00:50.703Z,21.26
2018-01-20T01:01:50.706Z,21.28
2018-01-20T01:02:50.794Z,21.3
2018-01-20T01:03:50.789Z,21.31
2018-01-20T01:04:50.805Z,21.33
2018-01-20T01:05:50.864Z,21.32
2018-01-20T01:06:50.726Z,21.37
2018-01-20T01:07:50.775Z,21.41
2018-01-20T01:08:50.796Z,21.32
2018-01-20T01:09:50.860Z,21.33
2018-01-20T01:10:50.858Z,21.29
2018-01-20T01:11:50.883Z,21.24
2018-01-20T01:12:50.789Z,21.24
2018-01-20T01:13:50.772Z,21.26
2018-01-20T01:14:50.762Z,21.29
2018-01-20T01:15:50.766Z,21.28
2018-01-20T01:16:52.024Z,21.27
2018-01-20T01:17:50.878Z,21.23
2018-01-20T01:18:50.768Z,21.22
2018-01-20T01:19:50.789Z,21.23
2018-01-20T01:20:50.864Z,21.31
2018-01-20T01:21:50.786Z,21.32
2018-01-20T01:22:50.868Z,21.28
2018-01-20T01:23:50.763Z,21.26
2018-01-20T01:24:50.767Z,21.29
2018-01-20T01:25:50.836Z,21.24
2018-01-20T01:26:50.883Z,21.19
2018-01-20T01:27:50.807Z,21.2
2018-01-20T01:28:50.898Z,21.28
2018-01-20T01:29:50.940Z,21.23
2018-01-20T01:30:50.930Z,21.2
2018-01-20T01:31:50.760Z,21.19
2018-01-20T01:32:50.807Z,21.2
2018-01-20T01:33:50.811Z,21.19
2018-01-20T01:34:50.818Z,21.23
2018-01-20T01:35:50.799Z,21.23
2018-01-20T01:36:50.778Z,21.25
2018-01-20T01:37:50.812Z,21.22
2018-01-20T01:38:50.911Z,21.18
2018-01-20T01:39:50.771Z,21.18
2018-01-20T01:40:50.788Z,21.2
2018-01-20T01:41:50.906Z,21.22
2018-01-20T01:42:50.954Z,21.23
2018-01-20T01:43:50.970Z,21.2
2018-01-20T01:44:50.760Z,21.23
2018-01-20T01:45:50.762Z,21.2
2018-01-20T01:46:50.770Z,21.15
2018-01-20T01:47:50.918Z,21.26
2018-01-20T01:48:50.860Z,21.23
2018-01-20T01:49:50.824Z,21.2
2018-01-20T01:50:50.839Z,21.2
2018-01-20T01:51:50.919Z,21.22
2018-01-20T01:52:50.778Z,21.2
2018-01-20T01:53:50.808Z,21.2
2018-01-20T01:54:50.770Z,21.22
2018-01-20T01:55:50.772Z,21.16
2018-01-20T01:56:50.817Z,21.19
2018-01-20T01:57:50.918Z,21.17
2018-01-20T01:58:51.113Z,21.18
2018-01-20T01:59:50.834Z,21.16
2018-01-20T02:00:50.862Z,21.22
2018-01-20T02:01:50.962Z,21.21
2018-01-20T02:02:50.838Z,21.15
2018-01-20T02:03:51.020Z,21.18
2018-01-20T02:04:50.801Z,21.12
2018-01-20T02:05:50.772Z,21.14
2018-01-20T02:06:50.789Z,21.14
2018-01-20T02:07:50.827Z,21.16
2018-01-20T02:08:50.921Z,21.23
2018-01-20T02:09:50.827Z,21.2
2018-01-20T02:10:50.814Z,21.19
2018-01-20T02:11:54.024Z,21.24
2018-01-20T02:12:50.813Z,21.15
2018-01-20T02:13:50.856Z,21.14
2018-01-20T02:14:50.822Z,21.16
2018-01-20T02:15:50.793Z,21.16
2018-01-20T02:16:50.791Z,21.18
2018-01-20T02:17:51.072Z,21.18
2018-01-20T02:18:50.903Z,21.2
2018-01-20T02:19:50.803Z,21.19
2018-01-20T02:20:50.873Z,21.17
2018-01-20T02:21:50.808Z,21.2
2018-01-20T02:22:50.754Z,21.23
2018-01-20T02:23:50.828Z,21.2
2018-01-20T02:24:50.794Z,21.18
2018-01-20T02:25:50.877Z,21.19
2018-01-20T02:26:50.900Z,21.21
2018-01-20T02:27:50.848Z,21.19
2018-01-20T02:28:50.952Z,21.19
2018-01-20T02:29:50.909Z,21.19
2018-01-20T02:30:50.832Z,21.23
2018-01-20T02:31:53.668Z,21.2
2018-01-20T02:32:54.094Z,21.18
2018-01-20T02:33:50.849Z,21.13
2018-01-20T02:34:50.926Z,21.16
2018-01-20T02:35:50.800Z,21.19
2018-01-20T02:36:50.892Z,21.18
2018-01-20T02:37:50.782Z,21.22
2018-01-20T02:38:50.862Z,21.18
2018-01-20T02:39:50.832Z,21.19
2018-01-20T02:40:50.849Z,21.14
2018-01-20T02:41:50.824Z,21.17
2018-01-20T02:42:50.837Z,21.19
2018-01-20T02:43:50.867Z,21.23
2018-01-20T02:44:50.853Z,21.31
2018-01-20T02:45:50.914Z,21.25
2018-01-20T02:46:50.816Z,21.27
2018-01-20T02:47:50.836Z,21.23
2018-01-20T02:48:50.879Z,21.21
2018-01-20T02:49:50.886Z,21.28
2018-01-20T02:50:50.863Z,21.2
2018-01-20T02:51:50.810Z,21.3
2018-01-20T02:52:50.959Z,21.27
2018-01-20T02:53:50.774Z,21.32
2018-01-20T02:54:50.892Z,21.24
2018-01-20T02:55:50.979Z,21.28
2018-01-20T02:56:50.877Z,21.19
2018-01-20T02:57:50.819Z,21.27
2018-01-20T02:58:50.831Z,21.29
2018-01-20T02:59:51.010Z,21.27
2018-01-20T03:00:50.975Z,21.28
2018-01-20T03:01:50.849Z,21.2
2018-01-20T03:02:50.927Z,21.26
2018-01-20T03:03:50.840Z,21.29
2018-01-20T03:04:50.909Z,21.17
2018-01-20T03:05:50.862Z,21.2
2018-01-20T03:06:50.842Z,21.15
2018-01-20T03:07:50.842Z,21.17
2018-01-20T03:08:50.842Z,21.15
2018-01-20T03:09:50.891Z,21.17
2018-01-20T03:10:50.818Z,21.18
2018-01-20T03:11:50.886Z,21.2
2018-01-20T03:12:50.871Z,21.27
2018-01-20T03:13:50.835Z,21.19
2018-01-20T03:14:51.234Z,21.18
2018-01-20T03:15:50.866Z,21.12
2018-01-20T03:16:50.849Z,21.18
2018-01-20T03:17:50.905Z,21.17
2018-01-20T03:18:50.856Z,21.16
2018-01-20T03:19:51.012Z,21.23
2018-01-20T03:20:51.937Z,21.29
2018-01-20T03:21:50.853Z,21.24
2018-01-20T03:22:50.884Z,21.21
2018-01-20T03:23:50.872Z,21.22
2018-01-20T03:24:50.826Z,21.23
2018-01-20T03:25:50.855Z,21.27
2018-01-20T03:26:50.960Z,21.23
2018-01-20T03:27:50.911Z,21.22
2018-01-20T03:28:50.998Z,21.21
2018-01-20T03:29:50.976Z,21.22
2018-01-20T03:30:50.881Z,21.26
2018-01-20T03:31:50.906Z,21.22
2018-01-20T03:32:50.862Z,21.24
2018-01-20T03:33:50.983Z,21.16
2018-01-20T03:34:50.936Z,21.19
2018-01-20T03:35:50.874Z,21.19
2018-01-20T03:36:50.876Z,21.18
2018-01-20T03:37:51.049Z,21.19
2018-01-20T03:38:50.909Z,21.2
2018-01-20T03:39:51.084Z,21.28
2018-01-20T03:40:50.860Z,21.26
2018-01-20T03:41:51.014Z,21.11
2018-01-20T03:42:50.924Z,21.17
2018-01-20T03:43:50.906Z,21.13
2018-01-20T03:44:50.944Z,21.04
2018-01-20T03:45:50.884Z,20.94
2018-01-20T03:46:50.865Z,20.86
2018-01-20T03:47:51.027Z,20.83
2018-01-20T03:48:50.920Z,20.84
2018-01-20T03:49:50.991Z,20.8
2018-01-20T03:50:50.875Z,20.89
2018-01-20T03:51:51.012Z,20.89
2018-01-20T03:52:50.851Z,20.8
2018-01-20T03:53:50.908Z,20.73
2018-01-20T03:54:50.908Z,20.77
2018-01-20T03:55:50.898Z,20.72
2018-01-20T03:56:50.895Z,20.72
2018-01-20T03:57:50.923Z,20.68
2018-01-20T03:58:50.885Z,20.7
2018-01-20T03:59:53.667Z,20.68
2018-01-20T04:00:50.915Z,20.71
2018-01-20T04:01:50.996Z,20.65
2018-01-20T04:02:50.862Z,20.68
2018-01-20T04:03:51.027Z,20.7
2018-01-20T04:04:51.092Z,20.72
2018-01-20T04:05:50.972Z,20.72
2018-01-20T04:06:50.974Z,20.68
2018-01-20T04:07:50.992Z,20.77
2018-01-20T04:08:51.008Z,20.79
2018-01-20T04:09:50.930Z,20.71
2018-01-20T04:10:51.043Z,20.72
2018-01-20T04:11:51.951Z,20.7
2018-01-20T04:12:51.078Z,20.7
2018-01-20T04:13:50.904Z,20.69
2018-01-20T04:14:50.911Z,20.75
2018-01-20T04:15:51.027Z,20.73
2018-01-20T04:16:50.897Z,20.73
2018-01-20T04:17:51.060Z,20.74
2018-01-20T04:18:50.935Z,20.81
2018-01-20T04:19:50.917Z,20.74
2018-01-20T04:20:50.953Z,20.77
2018-01-20T04:21:50.846Z,20.78
2018-01-20T04:22:50.850Z,20.8
2018-01-20T04:23:50.852Z,20.78
2018-01-20T04:24:50.872Z,20.83
2018-01-20T04:25:50.850Z,20.79
2018-01-20T04:26:50.850Z,20.74
2018-01-20T04:27:50.851Z,20.74
2018-01-20T04:28:50.853Z,20.71
2018-01-20T04:29:50.881Z,20.71
2018-01-20T04:30:50.852Z,20.72
2018-01-20T04:31:50.855Z,20.72
2018-01-20T04:32:50.854Z,20.75
2018-01-20T04:33:50.855Z,20.73
2018-01-20T04:34:50.939Z,20.71
2018-01-20T04:35:50.857Z,20.73
2018-01-20T04:36:50.861Z,20.74
2018-01-20T04:37:50.862Z,20.72
2018-01-20T04:38:50.864Z,20.7
2018-01-20T04:39:50.885Z,20.71
2018-01-20T04:40:50.861Z,20.67
2018-01-20T04:41:50.865Z,20.7
2018-01-20T04:42:50.865Z,20.71
2018-01-20T04:43:50.869Z,20.7
2018-01-20T04:44:50.890Z,20.69
2018-01-20T04:45:50.867Z,20.64
2018-01-20T04:46:50.874Z,20.66
2018-01-20T04:47:50.866Z,20.66
2018-01-20T04:48:50.869Z,20.7
2018-01-20T04:49:50.894Z,20.7
2018-01-20T04:50:50.918Z,20.67
2018-01-20T04:51:50.870Z,20.66
2018-01-20T04:52:50.874Z,20.71
2018-01-20T04:53:50.870Z,20.71
2018-01-20T04:54:50.895Z,20.65
2018-01-20T04:55:50.878Z,20.65
2018-01-20T04:56:50.880Z,20.63
2018-01-20T04:57:50.874Z,20.63
2018-01-20T04:58:50.876Z,20.63
2018-01-20T04:59:50.905Z,20.67
2018-01-20T05:00:50.881Z,20.62
2018-01-20T05:01:50.876Z,20.62
2018-01-20T05:02:50.880Z,20.64
2018-01-20T05:03:50.883Z,20.63
2018-01-20T05:04:50.902Z,20.61
2018-01-20T05:05:50.881Z,20.64
2018-01-20T05:06:50.884Z,20.65
2018-01-20T05:07:50.881Z,20.67
2018-01-20T05:08:50.886Z,20.68
2018-01-20T05:09:50.912Z,20.65
2018-01-20T05:10:50.885Z,20.67
2018-01-20T05:11:50.886Z,20.68
2018-01-20T05:12:50.888Z,20.61
2018-01-20T05:13:50.888Z,20.66
2018-01-20T05:14:50.911Z,20.64
2018-01-20T05:15:50.889Z,20.65
2018-01-20T05:16:50.891Z,20.64
2018-01-20T05:17:50.894Z,20.65
2018-01-20T05:18:50.891Z,20.65
2018-01-20T05:19:50.914Z,20.64
2018-01-20T05:20:50.891Z,20.59
2018-01-20T05:21:50.894Z,20.61
2018-01-20T05:22:50.896Z,20.6
2018-01-20T05:23:50.892Z,20.66
2018-01-20T05:24:50.916Z,20.61
2018-01-20T05:25:50.897Z,20.67
2018-01-20T05:26:50.905Z,20.67
2018-01-20T05:27:50.897Z,20.67
2018-01-20T05:28:50.900Z,20.66
2018-01-20T05:29:50.921Z,20.63
2018-01-20T05:30:50.899Z,20.59
2018-01-20T05:31:50.900Z,20.65
2018-01-20T05:32:50.904Z,20.61
2018-01-20T05:33:50.906Z,20.61
2018-01-20T05:34:50.925Z,20.65
2018-01-20T05:35:50.900Z,20.64
2018-01-20T05:36:50.905Z,20.65
2018-01-20T05:37:50.902Z,20.67
2018-01-20T05:38:50.908Z,20.72
2018-01-20T05:39:50.930Z,20.67
2018-01-20T05:40:50.910Z,20.69
2018-01-20T05:41:50.913Z,20.62
2018-01-20T05:42:50.907Z,20.64
2018-01-20T05:43:50.906Z,20.63
2018-01-20T05:44:50.915Z,20.66
2018-01-20T05:45:50.913Z,20.64
2018-01-20T05:46:50.915Z,20.71
2018-01-20T05:47:50.912Z,20.65
2018-01-20T05:48:50.911Z,20.68
2018-01-20T05:49:50.914Z,20.7
2018-01-20T05:50:50.939Z,20.65
2018-01-20T05:51:50.919Z,20.71
2018-01-20T05:52:50.921Z,20.74
2018-01-20T05:53:50.915Z,20.66
2018-01-20T05:54:50.920Z,20.66
2018-01-20T05:55:50.941Z,20.68
2018-01-20T05:56:50.920Z,20.68
2018-01-20T05:57:50.922Z,20.7
2018-01-20T05:58:50.924Z,20.66
2018-01-20T05:59:50.925Z,20.66
2018-01-20T06:00:50.944Z,20.7
2018-01-20T06:01:50.920Z,20.68
2018-01-20T06:02:50.930Z,20.63
2018-01-20T06:03:50.928Z,20.63
2018-01-20T06:04:50.923Z,20.65
2018-01-20T06:05:50.946Z,20.63
2018-01-20T06:06:50.930Z,20.65
2018-01-20T06:07:50.929Z,20.64
2018-01-20T06:08:50.930Z,20.69
2018-01-20T06:09:50.936Z,20.62
2018-01-20T06:10:50.954Z,20.63
2018-01-20T06:11:50.929Z,20.63
2018-01-20T06:12:50.929Z,20.68
2018-01-20T06:13:50.931Z,20.6
2018-01-20T06:14:50.938Z,20.64
2018-01-20T06:15:50.962Z,20.68
2018-01-20T06:16:50.935Z,20.66
2018-01-20T06:17:50.934Z,20.65
2018-01-20T06:18:50.938Z,20.62
2018-01-20T06:19:50.935Z,20.64
2018-01-20T06:20:50.960Z,20.65
2018-01-20T06:21:50.940Z,20.65
2018-01-20T06:22:50.942Z,20.67
2018-01-20T06:23:50.953Z,20.67
2018-01-20T06:24:50.939Z,20.77
2018-01-20T06:25:50.967Z,20.75
2018-01-20T06:26:50.941Z,20.78
2018-01-20T06:27:50.947Z,20.75
2018-01-20T06:28:50.944Z,20.77
2018-01-20T06:29:50.945Z,20.81
2018-01-20T06:30:51.033Z,20.83
2018-01-20T06:31:50.946Z,20.84
2018-01-20T06:32:50.944Z,20.85
2018-01-20T06:33:50.952Z,20.86
2018-01-20T06:34:50.947Z,20.91
2018-01-20T06:35:50.973Z,20.9
2018-01-20T06:36:50.951Z,20.91
2018-01-20T06:37:50.950Z,20.92
2018-01-20T06:38:50.951Z,20.93
2018-01-20T06:39:50.958Z,20.94
2018-01-20T06:40:50.982Z,20.95
2018-01-20T06:41:50.952Z,20.95
2018-01-20T06:42:50.954Z,20.96
2018-01-20T06:43:50.957Z,20.98
2018-01-20T06:44:50.962Z,20.98
2018-01-20T06:45:50.981Z,21.01
2018-01-20T06:46:50.961Z,21.01
2018-01-20T06:47:50.959Z,21.01
2018-01-20T06:48:50.962Z,21.01
2018-01-20T06:49:50.958Z,21
2018-01-20T06:50:50.984Z,21.03
2018-01-20T06:51:50.981Z,21.04
2018-01-20T06:52:50.964Z,21.05
2018-01-20T06:53:50.963Z,21.06
2018-01-20T06:54:50.963Z,21.07
2018-01-20T06:55:50.986Z,21.06
2018-01-20T06:56:50.968Z,21.09
2018-01-20T06:57:50.971Z,21.05
2018-01-20T06:58:50.972Z,21.05
2018-01-20T06:59:50.966Z,21.06
2018-01-20T07:00:50.993Z,21.07
2018-01-20T07:01:50.973Z,21.06
2018-01-20T07:02:50.970Z,21.08
2018-01-20T07:03:50.971Z,21.1
2018-01-20T07:04:50.975Z,21.11
2018-01-20T07:05:50.999Z,21.11
2018-01-20T07:06:50.977Z,21.1
2018-01-20T07:07:50.974Z,21.11
2018-01-20T07:08:50.974Z,21.11
2018-01-20T07:09:50.980Z,21.1
2018-01-20T07:10:51.004Z,21.12
2018-01-20T07:11:50.975Z,21.13
2018-01-20T07:12:51.015Z,21.15
2018-01-20T07:13:50.981Z,21.15
2018-01-20T07:14:50.989Z,21.18
2018-01-20T07:15:51.007Z,21.21
2018-01-20T07:16:50.981Z,21.16
2018-01-20T07:17:50.982Z,21.17
2018-01-20T07:18:50.983Z,21.15
2018-01-20T07:19:50.989Z,21.15
2018-01-20T07:20:51.009Z,21.13
2018-01-20T07:21:50.996Z,21.16
2018-01-20T07:22:50.985Z,21.16
2018-01-20T07:23:50.992Z,21.16
2018-01-20T07:24:50.993Z,21.18
2018-01-20T07:25:51.013Z,21.16
2018-01-20T07:26:50.994Z,21.14
2018-01-20T07:27:50.999Z,21.18
2018-01-20T07:28:50.989Z,21.18
2018-01-20T07:29:50.994Z,21.17
2018-01-20T07:30:51.018Z,21.17
2018-01-20T07:31:50.997Z,21.15
2018-01-20T07:32:51.001Z,21.17
2018-01-20T07:33:50.998Z,21.16
2018-01-20T07:34:51.000Z,21.16
2018-01-20T07:35:51.018Z,21.12
2018-01-20T07:36:50.999Z,21.15
2018-01-20T07:37:51.004Z,21.15
2018-01-20T07:38:51.001Z,21.17
2018-01-20T07:39:51.003Z,21.16
2018-01-20T07:40:51.026Z,21.12
2018-01-20T07:41:51.004Z,21.15
2018-01-20T07:42:51.001Z,21.17
2018-01-20T07:43:51.006Z,21.14
2018-01-20T07:44:51.005Z,21.15
2018-01-20T07:45:51.031Z,21.14
2018-01-20T07:46:51.013Z,21.14
2018-01-20T07:47:51.008Z,21.15
2018-01-20T07:48:51.008Z,21.15
2018-01-20T07:49:51.014Z,21.17
2018-01-20T07:50:51.036Z,21.15
2018-01-20T07:51:51.012Z,21.17
2018-01-20T07:52:51.010Z,21.19
2018-01-20T07:53:51.011Z,21.18
2018-01-20T07:54:51.010Z,21.12
2018-01-20T07:55:51.044Z,21.15
2018-01-20T07:56:51.016Z,21.03
2018-01-20T07:57:51.018Z,20.98
2018-01-20T07:58:51.016Z,20.93
2018-01-20T07:59:51.020Z,20.94
2018-01-20T08:00:51.038Z,20.93
2018-01-20T08:01:51.021Z,20.93
2018-01-20T08:02:51.019Z,20.93
2018-01-20T08:03:51.021Z,20.94
2018-01-20T08:04:51.024Z,21.09
2018-01-20T08:05:51.045Z,21.16
2018-01-20T08:06:51.023Z,21.2
2018-01-20T08:07:51.026Z,21.23
2018-01-20T08:08:51.027Z,21.27
2018-01-20T08:09:51.025Z,21.24
2018-01-20T08:10:51.065Z,21.27
2018-01-20T08:11:51.030Z,21.26
2018-01-20T08:12:51.031Z,21.29
2018-01-20T08:13:51.032Z,21.27
2018-01-20T08:14:51.032Z,21.29
2018-01-20T08:15:51.056Z,21.28
2018-01-20T08:16:51.035Z,21.23
2018-01-20T08:17:51.033Z,21.27
2018-01-20T08:18:51.034Z,21.29
2018-01-20T08:19:51.037Z,21.26
2018-01-20T08:20:51.059Z,21.23
2018-01-20T08:21:51.034Z,21.23
2018-01-20T08:22:51.037Z,21.26
2018-01-20T08:23:51.038Z,21.23
2018-01-20T08:24:51.039Z,21.25
2018-01-20T08:25:51.060Z,21.23
2018-01-20T08:26:51.040Z,21.27
2018-01-20T08:27:51.041Z,21.24
2018-01-20T08:28:51.043Z,21.27
2018-01-20T08:29:51.045Z,21.23
2018-01-20T08:30:51.065Z,21.27
2018-01-20T08:31:51.067Z,21.24
2018-01-20T08:32:51.043Z,21.27
2018-01-20T08:33:51.050Z,21.24
2018-01-20T08:34:51.044Z,21.15
2018-01-20T08:35:51.075Z,21.12
2018-01-20T08:36:51.051Z,21.1
2018-01-20T08:37:51.050Z,21.11
2018-01-20T08:38:51.057Z,21.1
2018-01-20T08:39:51.051Z,21.16
2018-01-20T08:40:51.052Z,21.14
2018-01-20T08:41:51.075Z,21.15
2018-01-20T08:42:51.052Z,21.17
2018-01-20T08:43:51.052Z,21.22
2018-01-20T08:44:51.055Z,21.22
2018-01-20T08:45:51.056Z,21.24
2018-01-20T08:46:51.080Z,21.26
2018-01-20T08:47:51.058Z,21.24
2018-01-20T08:48:51.060Z,21.28
2018-01-20T08:49:51.059Z,21.31
2018-01-20T08:50:51.061Z,21.31
2018-01-20T08:51:51.085Z,21.32
2018-01-20T08:52:51.060Z,21.32
2018-01-20T08:53:51.063Z,21.3
2018-01-20T08:54:51.067Z,21.32
2018-01-20T08:55:51.064Z,21.33
2018-01-20T08:56:51.084Z,21.31
2018-01-20T08:57:51.060Z,21.31
2018-01-20T08:58:51.064Z,21.32
2018-01-20T08:59:51.066Z,21.29
2018-01-20T09:00:51.067Z,21.32
2018-01-20T09:01:51.088Z,21.3
2018-01-20T09:02:51.067Z,21.31
2018-01-20T09:03:51.069Z,21.28
2018-01-20T09:04:51.070Z,21.28
2018-01-20T09:05:51.070Z,21.3
2018-01-20T09:06:51.096Z,21.27
2018-01-20T09:07:51.078Z,21.28
2018-01-20T09:08:51.074Z,21.29
2018-01-20T09:09:51.074Z,21.24
2018-01-20T09:10:51.075Z,21.24
2018-01-20T09:11:51.098Z,21.24
2018-01-20T09:12:51.080Z,21.27
2018-01-20T09:13:51.082Z,21.26
2018-01-20T09:14:51.074Z,21.28
2018-01-20T09:15:51.079Z,21.28
2018-01-20T09:16:51.101Z,21.29
2018-01-20T09:17:51.080Z,21.27
2018-01-20T09:18:51.086Z,21.27
2018-01-20T09:19:51.085Z,21.27
2018-01-20T09:20:51.081Z,21.21
2018-01-20T09:21:51.112Z,21.24
2018-01-20T09:22:51.085Z,21.27
2018-01-20T09:23:51.086Z,21.24
2018-01-20T09:24:51.084Z,21.28
2018-01-20T09:25:51.091Z,21.28
2018-01-20T09:26:51.119Z,21.28
2018-01-20T09:27:51.088Z,21.3
2018-01-20T09:28:51.089Z,21.29
2018-01-20T09:29:51.090Z,21.3
2018-01-20T09:30:51.089Z,21.3
2018-01-20T09:31:51.113Z,21.32
2018-01-20T09:32:51.094Z,21.33
2018-01-20T09:33:51.094Z,21.33
2018-01-20T09:34:51.093Z,21.35
2018-01-20T09:35:51.094Z,21.34
2018-01-20T09:36:51.123Z,21.34
2018-01-20T09:37:51.095Z,21.34
2018-01-20T09:38:51.096Z,21.34
2018-01-20T09:39:51.096Z,21.36
2018-01-20T09:40:51.097Z,21.35
2018-01-20T09:41:51.123Z,21.36
2018-01-20T09:42:51.101Z,21.34
2018-01-20T09:43:51.105Z,21.33
2018-01-20T09:44:51.102Z,21.34
2018-01-20T09:45:51.108Z,21.32
2018-01-20T09:46:51.125Z,21.3
2018-01-20T09:47:51.104Z,21.32
2018-01-20T09:48:51.110Z,21.34
2018-01-20T09:49:51.104Z,21.34
2018-01-20T09:50:51.109Z,21.32
2018-01-20T09:51:51.129Z,21.32
2018-01-20T09:52:51.107Z,21.32
2018-01-20T09:53:51.111Z,21.31
2018-01-20T09:54:51.110Z,21.28
2018-01-20T09:55:51.112Z,21.3
2018-01-20T09:56:51.135Z,21.3
2018-01-20T09:57:51.115Z,21.33
2018-01-20T09:58:51.113Z,21.33
2018-01-20T09:59:51.114Z,21.35
2018-01-20T10:00:51.116Z,21.36
2018-01-20T10:01:51.138Z,21.34
2018-01-20T10:02:51.114Z,21.36
2018-01-20T10:03:51.117Z,21.35
2018-01-20T10:04:51.116Z,21.36
2018-01-20T10:05:51.119Z,21.34
2018-01-20T10:06:51.145Z,21.31
2018-01-20T10:07:51.120Z,21.32
2018-01-20T10:08:51.128Z,21.34
2018-01-20T10:09:51.123Z,21.36
2018-01-20T10:10:51.122Z,21.34
2018-01-20T10:11:51.143Z,21.37
2018-01-20T10:12:51.126Z,21.35
2018-01-20T10:13:51.125Z,21.36
2018-01-20T10:14:51.129Z,21.31
2018-01-20T10:15:51.126Z,21.34
2018-01-20T10:16:51.146Z,21.36
2018-01-20T10:17:51.132Z,21.36
2018-01-20T10:18:51.132Z,21.33
2018-01-20T10:19:51.130Z,21.35
2018-01-20T10:20:51.131Z,21.38
2018-01-20T10:21:51.158Z,21.37
2018-01-20T10:22:51.132Z,21.34
2018-01-20T10:23:51.133Z,21.36
2018-01-20T10:24:51.133Z,21.38
2018-01-20T10:25:51.134Z,21.38
2018-01-20T10:26:51.162Z,21.42
2018-01-20T10:27:51.135Z,21.4
2018-01-20T10:28:51.166Z,21.38
2018-01-20T10:29:51.138Z,21.4
2018-01-20T10:30:51.151Z,21.38
2018-01-20T10:31:51.161Z,21.4
2018-01-20T10:32:51.141Z,21.41
2018-01-20T10:33:51.139Z,21.47
2018-01-20T10:34:51.140Z,21.43
2018-01-20T10:35:51.140Z,21.46
2018-01-20T10:36:51.181Z,21.46
2018-01-20T10:37:51.147Z,21.43
2018-01-20T10:38:51.144Z,21.43
2018-01-20T10:39:51.391Z,21.43
2018-01-20T10:40:51.144Z,21.42
2018-01-20T10:41:51.173Z,21.46
2018-01-20T10:42:51.147Z,21.47
2018-01-20T10:43:51.149Z,21.47
2018-01-20T10:44:51.148Z,21.41
2018-01-20T10:45:51.150Z,21.5
2018-01-20T10:46:51.175Z,21.43
2018-01-20T10:47:51.154Z,21.43
2018-01-20T10:48:51.152Z,21.43
2018-01-20T10:49:51.154Z,21.41
2018-01-20T10:50:51.154Z,21.43
2018-01-20T10:51:51.177Z,21.39
2018-01-20T10:52:51.154Z,21.41
2018-01-20T10:53:51.154Z,21.49
2018-01-20T10:54:51.158Z,21.47
2018-01-20T10:55:51.158Z,21.46
2018-01-20T10:56:51.178Z,21.47
2018-01-20T10:57:51.158Z,21.39
2018-01-20T10:58:51.167Z,21.43
2018-01-20T10:59:51.162Z,21.5
2018-01-20T11:00:51.160Z,21.51
2018-01-20T11:01:51.184Z,21.48
2018-01-20T11:02:51.162Z,21.49
2018-01-20T11:03:51.166Z,21.53
2018-01-20T11:04:51.170Z,21.52
2018-01-20T11:05:51.164Z,21.48
2018-01-20T11:06:51.189Z,21.44
2018-01-20T11:07:51.166Z,21.41
2018-01-20T11:08:51.187Z,21.43
2018-01-20T11:09:51.169Z,21.5
2018-01-20T11:10:51.168Z,21.52
2018-01-20T11:11:51.860Z,21.48
2018-01-20T11:12:51.171Z,21.51
2018-01-20T11:13:51.179Z,21.54
2018-01-20T11:14:51.173Z,21.53
2018-01-20T11:15:51.373Z,21.54
2018-01-20T11:16:51.200Z,21.52
2018-01-20T11:17:51.176Z,21.5
2018-01-20T11:18:51.175Z,21.52
2018-01-20T11:19:51.175Z,21.53
2018-01-20T11:20:51.196Z,21.5
2018-01-20T11:21:51.196Z,21.52
2018-01-20T11:22:51.181Z,21.51
2018-01-20T11:23:51.242Z,21.49
2018-01-20T11:24:51.187Z,21.45
2018-01-20T11:25:51.188Z,21.49
2018-01-20T11:26:51.248Z,21.47
2018-01-20T11:27:51.181Z,21.48
2018-01-20T11:28:51.184Z,21.52
2018-01-20T11:29:51.183Z,21.54
2018-01-20T11:30:51.186Z,21.59
2018-01-20T11:31:51.209Z,21.61
2018-01-20T11:32:51.186Z,21.58
2018-01-20T11:33:51.189Z,21.54
2018-01-20T11:34:51.188Z,21.51
2018-01-20T11:35:51.190Z,21.52
2018-01-20T11:36:51.218Z,21.5
2018-01-20T11:37:51.189Z,21.49
2018-01-20T11:38:51.194Z,21.51
2018-01-20T11:39:51.193Z,21.5
2018-01-20T11:40:51.191Z,21.51
2018-01-20T11:41:51.221Z,21.53
2018-01-20T11:42:51.193Z,21.5
2018-01-20T11:43:51.197Z,21.51
2018-01-20T11:44:51.196Z,21.49
2018-01-20T11:45:51.197Z,21.49
2018-01-20T11:46:51.220Z,21.5
2018-01-20T11:47:51.197Z,21.48
2018-01-20T11:48:51.198Z,21.51
2018-01-20T11:49:51.199Z,21.49
2018-01-20T11:50:51.201Z,21.48
2018-01-20T11:51:51.317Z,21.51
2018-01-20T11:52:51.203Z,21.51
2018-01-20T11:53:51.201Z,21.51
2018-01-20T11:54:51.203Z,21.52
2018-01-20T11:55:51.203Z,21.51
2018-01-20T11:56:51.205Z,21.5
2018-01-20T11:57:51.232Z,21.48
2018-01-20T11:58:51.209Z,21.5
2018-01-20T11:59:51.209Z,21.47
2018-01-20T12:00:51.215Z,21.49
2018-01-20T12:01:51.208Z,21.5
2018-01-20T12:02:51.233Z,21.52
2018-01-20T12:03:51.214Z,21.52
2018-01-20T12:04:51.206Z,21.51
2018-01-20T12:05:51.216Z,21.52
2018-01-20T12:06:51.214Z,21.51
2018-01-20T12:07:51.238Z,21.57
2018-01-20T12:08:51.215Z,21.56
2018-01-20T12:09:51.217Z,21.55
2018-01-20T12:10:51.269Z,21.53
2018-01-20T12:11:51.219Z,21.49
2018-01-20T12:12:51.244Z,21.52
2018-01-20T12:13:51.219Z,21.55
2018-01-20T12:14:51.223Z,21.56
2018-01-20T12:15:51.221Z,21.55
2018-01-20T12:16:51.222Z,21.51
2018-01-20T12:17:51.248Z,21.48
2018-01-20T12:18:51.223Z,21.51
2018-01-20T12:19:51.223Z,21.5
2018-01-20T12:20:51.226Z,21.5
2018-01-20T12:21:51.225Z,21.51
2018-01-20T12:22:51.250Z,21.5
2018-01-20T12:23:51.258Z,21.5
2018-01-20T12:24:51.229Z,21.48
2018-01-20T12:25:51.229Z,21.52
2018-01-20T12:26:51.231Z,21.51
2018-01-20T12:27:51.256Z,21.52
2018-01-20T12:28:51.236Z,21.5
2018-01-20T12:29:51.234Z,21.48
2018-01-20T12:30:51.232Z,21.48
2018-01-20T12:31:51.232Z,21.51
2018-01-20T12:32:51.255Z,21.5
2018-01-20T12:33:51.235Z,21.5
2018-01-20T12:34:51.235Z,21.48
2018-01-20T12:35:51.239Z,21.5
2018-01-20T12:36:51.235Z,21.52
2018-01-20T12:37:51.262Z,21.52
2018-01-20T12:38:51.241Z,21.54
2018-01-20T12:39:51.240Z,21.53
2018-01-20T12:40:51.243Z,21.53
2018-01-20T12:41:51.240Z,21.54
2018-01-20T12:42:51.265Z,21.51
2018-01-20T12:43:51.242Z,21.51
2018-01-20T12:44:51.243Z,21.52
2018-01-20T12:45:51.274Z,21.51
2018-01-20T12:46:51.246Z,21.52
2018-01-20T12:47:51.268Z,21.56
2018-01-20T12:48:51.247Z,21.55
2018-01-20T12:49:51.250Z,21.54
2018-01-20T12:50:51.247Z,21.55
2018-01-20T12:51:51.248Z,21.55
2018-01-20T12:52:51.271Z,21.55
2018-01-20T12:53:51.253Z,21.51
2018-01-20T12:54:51.287Z,21.55
2018-01-20T12:55:51.249Z,21.5